createdAt,value
2023-05-14T00:00:23.539Z,29.73
2023-05-14T00:02:51.689Z,27.90
2023-05-14T00:05:19.894Z,27.97
2023-05-14T00:07:49.275Z,30.83
2023-05-14T00:10:19.073Z,30.13
2023-05-14T00:12:47.089Z,27.53
2023-05-14T00:15:15.110Z,29.37
2023-05-14T00:17:43.505Z,30.17
2023-05-14T00:20:12.680Z,29.63
2023-05-14T00:22:41.311Z,27.87
2023-05-14T00:25:11.092Z,32.67
2023-05-14T00:27:39.140Z,29.37
2023-05-14T00:30:08.248Z,30.20
2023-05-14T00:32:36.212Z,29.73
2023-05-14T00:35:04.520Z,26.20
2023-05-14T00:37:32.718Z,30.80
2023-05-14T00:40:00.876Z,30.53
2023-05-14T00:42:30.195Z,33.97
2023-05-14T00:44:58.431Z,33.37
2023-05-14T00:47:26.474Z,30.93
2023-05-14T00:49:54.771Z,30.33
2023-05-14T00:52:23.045Z,30.27
2023-05-14T00:54:51.403Z,29.87
2023-05-14T00:57:19.875Z,30.40
2023-05-14T00:59:49.435Z,32.87
2023-05-14T01:02:17.582Z,28.43
2023-05-14T01:04:45.752Z,24.87
2023-05-14T01:07:21.600Z,33.27
2023-05-14T01:09:55.915Z,30.13
2023-05-14T01:12:34.528Z,27.07
2023-05-14T01:15:13.613Z,28.30
2023-05-14T01:17:48.037Z,29.17
2023-05-14T01:20:16.293Z,29.97
2023-05-14T01:22:45.637Z,30.87
2023-05-14T01:25:13.607Z,29.10
2023-05-14T01:27:48.755Z,29.40
2023-05-14T01:30:23.850Z,31.30
2023-05-14T01:32:57.166Z,31.00
2023-05-14T01:35:28.101Z,26.50
2023-05-14T01:37:59.357Z,31.37
2023-05-14T01:40:27.886Z,27.97
2023-05-14T01:42:56.467Z,30.10
2023-05-14T01:45:25.306Z,28.60
2023-05-14T01:47:53.468Z,27.13
2023-05-14T01:50:21.646Z,31.57
2023-05-14T01:52:51.211Z,29.80
2023-05-14T01:55:20.745Z,26.97
2023-05-14T01:57:48.780Z,28.03
2023-05-14T02:00:17.111Z,29.57
2023-05-14T02:02:45.055Z,30.10
2023-05-14T02:05:14.342Z,32.00
2023-05-14T02:07:42.388Z,33.80
2023-05-14T02:10:11.462Z,28.37
2023-05-14T02:12:40.928Z,28.17
2023-05-14T02:15:11.013Z,33.63
2023-05-14T02:17:39.618Z,32.73
2023-05-14T02:20:10.164Z,28.83
2023-05-14T02:22:41.216Z,31.10
2023-05-14T02:25:10.661Z,33.13
2023-05-14T02:27:40.213Z,31.37
2023-05-14T02:30:09.725Z,27.83
2023-05-14T02:32:38.432Z,32.60
2023-05-14T02:35:07.767Z,33.73
2023-05-14T02:37:35.806Z,30.77
2023-05-14T02:40:04.401Z,31.33
2023-05-14T02:42:32.659Z,28.67
2023-05-14T02:45:01.940Z,35.23
2023-05-14T02:47:29.976Z,32.63
2023-05-14T02:49:58.093Z,33.03
2023-05-14T02:52:26.121Z,30.73
2023-05-14T02:54:54.362Z,30.30
2023-05-14T02:57:22.355Z,33.53
2023-05-14T02:59:50.374Z,34.00
2023-05-14T03:02:20.365Z,29.40
2023-05-14T03:04:48.770Z,29.37
2023-05-14T03:07:16.985Z,29.43
2023-05-14T03:09:45.209Z,31.00
2023-05-14T03:12:14.390Z,31.40
2023-05-14T03:14:42.396Z,33.17
2023-05-14T03:17:10.392Z,31.23
2023-05-14T03:19:39.791Z,35.20
2023-05-14T03:22:08.705Z,31.47
2023-05-14T03:24:38.871Z,32.87
2023-05-14T03:27:07.068Z,28.07
2023-05-14T03:29:35.124Z,35.23
2023-05-14T03:32:03.210Z,28.73
2023-05-14T03:34:31.265Z,30.13
2023-05-14T03:37:01.538Z,31.23
2023-05-14T03:39:29.534Z,30.73
2023-05-14T03:41:58.885Z,31.43
2023-05-14T03:44:27.126Z,30.77
2023-05-14T03:46:55.185Z,31.67
2023-05-14T03:49:23.206Z,32.40
2023-05-14T03:51:51.807Z,29.00
2023-05-14T03:54:21.135Z,29.90
2023-05-14T03:56:49.157Z,29.03
2023-05-14T03:59:17.213Z,29.93
2023-05-14T04:01:45.438Z,27.73
2023-05-14T04:04:13.455Z,28.40
2023-05-14T04:06:41.500Z,30.43
2023-05-14T04:09:10.906Z,27.70
2023-05-14T04:11:40.272Z,32.50
2023-05-14T04:14:08.401Z,31.57
2023-05-14T04:16:36.466Z,27.43
2023-05-14T04:19:05.766Z,28.80
2023-05-14T04:21:33.903Z,31.80
2023-05-14T04:24:01.894Z,28.23
2023-05-14T04:26:29.861Z,31.60
2023-05-14T04:29:02.773Z,29.87
2023-05-14T04:31:31.596Z,28.90
2023-05-14T04:33:59.671Z,27.63
2023-05-14T04:36:27.708Z,27.43
2023-05-14T04:38:55.977Z,24.30
2023-05-14T04:41:24.117Z,27.80
2023-05-14T04:43:52.112Z,26.10
2023-05-14T04:46:21.617Z,28.87
2023-05-14T04:48:50.354Z,21.37
2023-05-14T04:51:18.494Z,24.43
2023-05-14T04:53:46.454Z,26.17
2023-05-14T04:56:14.503Z,23.43
2023-05-14T04:58:42.544Z,25.87
2023-05-14T05:01:10.594Z,24.83
2023-05-14T05:03:40.047Z,22.47
2023-05-14T05:06:08.648Z,24.23
2023-05-14T05:08:37.457Z,21.63
2023-05-14T05:11:06.019Z,25.90
2023-05-14T05:13:33.997Z,20.83
2023-05-14T05:16:02.160Z,22.60
2023-05-14T05:18:30.283Z,21.43
2023-05-14T05:20:59.640Z,22.50
2023-05-14T05:23:27.719Z,28.40
2023-05-14T05:25:55.771Z,20.80
2023-05-14T05:28:23.752Z,24.00
2023-05-14T05:30:51.736Z,19.83
2023-05-14T05:33:19.802Z,20.80
2023-05-14T05:35:48.208Z,20.90
2023-05-14T05:38:18.275Z,19.20
2023-05-14T05:40:46.406Z,17.20
2023-05-14T05:43:14.376Z,19.07
2023-05-14T05:45:42.468Z,19.10
2023-05-14T05:48:10.433Z,20.13
2023-05-14T05:50:38.399Z,19.73
2023-05-14T05:53:06.482Z,18.03
2023-05-14T05:55:35.993Z,20.63
2023-05-14T05:58:04.590Z,18.47
2023-05-14T06:00:32.624Z,25.50
2023-05-14T06:03:01.074Z,21.03
2023-05-14T06:05:29.162Z,20.77
2023-05-14T06:07:57.154Z,24.97
2023-05-14T06:10:25.639Z,22.27
2023-05-14T06:12:55.055Z,21.97
2023-05-14T06:15:23.472Z,21.57
2023-05-14T06:17:51.543Z,21.30
2023-05-14T06:20:20.112Z,22.13
2023-05-14T06:22:48.185Z,20.97
2023-05-14T06:25:16.219Z,21.37
2023-05-14T06:27:44.178Z,24.27
2023-05-14T06:30:14.927Z,20.57
2023-05-14T06:32:42.908Z,22.33
2023-05-14T06:35:11.101Z,22.63
2023-05-14T06:37:39.206Z,23.10
2023-05-14T06:40:08.554Z,24.97
2023-05-14T06:42:36.546Z,24.53
2023-05-14T06:45:06.917Z,21.77
2023-05-14T06:47:36.354Z,18.87
2023-05-14T06:50:04.632Z,18.33
2023-05-14T06:52:32.620Z,20.03
2023-05-14T06:55:01.146Z,20.13
2023-05-14T06:57:29.178Z,17.67
2023-05-14T06:59:57.455Z,22.63
2023-05-14T07:02:25.499Z,20.77
2023-05-14T07:04:55.925Z,14.90
2023-05-14T07:07:23.875Z,16.87
2023-05-14T07:09:52.130Z,16.27
2023-05-14T07:12:20.153Z,20.07
2023-05-14T07:14:48.119Z,17.37
2023-05-14T07:17:16.528Z,14.23
2023-05-14T07:19:44.672Z,14.90
2023-05-14T07:22:14.015Z,16.13
2023-05-14T07:24:42.020Z,10.13
2023-05-14T07:27:10.028Z,10.57
2023-05-14T07:29:38.098Z,11.37
2023-05-14T07:32:06.591Z,9.60
2023-05-14T07:34:34.729Z,9.33
2023-05-14T07:37:03.092Z,12.73
2023-05-14T07:39:32.413Z,12.60
2023-05-14T07:42:01.060Z,7.40
2023-05-14T07:44:29.047Z,9.07
2023-05-14T07:46:57.077Z,8.13
2023-05-14T07:49:25.042Z,9.17
2023-05-14T07:51:53.307Z,7.93
2023-05-14T07:54:21.352Z,9.33
2023-05-14T07:56:51.053Z,6.40
2023-05-14T07:59:19.188Z,7.10
2023-05-14T08:01:47.448Z,6.20
2023-05-14T08:04:16.255Z,7.87
2023-05-14T08:06:44.455Z,11.27
2023-05-14T08:09:12.560Z,7.43
2023-05-14T08:11:40.634Z,6.87
2023-05-14T08:14:09.996Z,10.03
2023-05-14T08:16:38.593Z,6.30
2023-05-14T08:19:06.694Z,8.27
2023-05-14T08:21:34.705Z,7.10
2023-05-14T08:24:02.631Z,6.63
2023-05-14T08:26:30.669Z,6.33
2023-05-14T08:28:58.682Z,8.03
2023-05-14T08:31:28.159Z,7.18
2023-05-14T08:33:56.328Z,10.50
2023-05-14T08:36:24.344Z,6.30
2023-05-14T08:38:52.495Z,6.68
2023-05-14T08:41:21.293Z,5.43
2023-05-14T08:43:59.380Z,5.47
2023-05-14T08:46:31.712Z,6.28
2023-05-14T08:49:08.821Z,4.65
2023-05-14T08:51:37.296Z,8.60
2023-05-14T08:54:06.662Z,6.32
2023-05-14T08:56:34.828Z,6.53
2023-05-14T08:59:02.847Z,4.50
2023-05-14T09:01:32.378Z,6.85
2023-05-14T09:04:06.958Z,3.90
2023-05-14T09:06:35.943Z,4.88
2023-05-14T09:09:04.123Z,5.80
2023-05-14T09:11:32.073Z,5.78
2023-05-14T09:14:00.141Z,6.00
2023-05-14T09:16:28.501Z,6.30
2023-05-14T09:18:57.938Z,5.60
2023-05-14T09:21:26.049Z,5.35
2023-05-14T09:23:56.360Z,4.72
2023-05-14T09:26:26.548Z,6.22
2023-05-14T09:29:01.747Z,8.50
2023-05-14T09:31:30.809Z,8.27
2023-05-14T09:34:01.226Z,4.05
2023-05-14T09:36:29.385Z,3.85
2023-05-14T09:38:58.533Z,7.13
2023-05-14T09:41:26.882Z,4.10
2023-05-14T09:43:56.808Z,4.03
2023-05-14T09:46:30.039Z,3.63
2023-05-14T09:48:58.441Z,2.92
2023-05-14T09:51:31.454Z,7.18
2023-05-14T09:54:00.059Z,6.18
2023-05-14T09:56:28.097Z,7.18
2023-05-14T09:58:56.091Z,5.05
2023-05-14T10:01:24.805Z,3.95
2023-05-14T10:03:54.587Z,4.25
2023-05-14T10:06:26.812Z,5.43
2023-05-14T10:08:57.984Z,4.90
2023-05-14T10:11:29.662Z,4.47
2023-05-14T10:14:04.239Z,3.85
2023-05-14T10:16:35.869Z,3.75
2023-05-14T10:19:09.534Z,3.00
2023-05-14T10:21:39.215Z,5.18
2023-05-14T10:24:11.004Z,4.03
2023-05-14T10:26:42.050Z,5.40
2023-05-14T10:29:11.311Z,2.72
2023-05-14T10:31:50.140Z,4.10
2023-05-14T10:34:38.679Z,4.95
2023-05-14T10:37:09.022Z,3.35
2023-05-14T10:39:48.974Z,3.20
2023-05-14T10:42:19.703Z,5.88
2023-05-14T10:44:51.375Z,3.70
2023-05-14T10:47:19.637Z,4.22
2023-05-14T10:49:55.520Z,5.57
2023-05-14T10:52:24.229Z,5.07
2023-05-14T10:54:54.828Z,3.08
2023-05-14T10:57:24.874Z,5.65
2023-05-14T10:59:55.154Z,6.28
2023-05-14T11:02:25.953Z,7.90
2023-05-14T11:05:00.226Z,5.00
2023-05-14T11:07:33.403Z,6.20
2023-05-14T11:10:05.529Z,8.02
2023-05-14T11:12:34.534Z,7.22
2023-05-14T11:15:03.908Z,3.90
2023-05-14T11:17:33.173Z,4.90
2023-05-14T11:20:01.278Z,4.22
2023-05-14T11:22:29.436Z,4.47
2023-05-14T11:24:57.507Z,7.38
2023-05-14T11:27:27.328Z,3.97
2023-05-14T11:29:56.107Z,3.85
2023-05-14T11:32:24.409Z,4.50
2023-05-14T11:34:52.473Z,5.03
2023-05-14T11:37:24.421Z,4.45
2023-05-14T11:39:54.949Z,3.42
2023-05-14T11:42:23.789Z,4.57
2023-05-14T11:44:54.049Z,4.90
2023-05-14T11:47:27.487Z,3.53
2023-05-14T11:49:55.632Z,3.80
2023-05-14T11:52:24.215Z,6.15
2023-05-14T11:54:52.619Z,2.95
2023-05-14T11:57:22.391Z,3.55
2023-05-14T11:59:57.189Z,5.53
2023-05-14T12:02:29.157Z,2.70
2023-05-14T12:04:58.428Z,5.40
2023-05-14T12:07:30.545Z,4.25
2023-05-14T12:10:02.504Z,3.80
2023-05-14T12:12:36.198Z,3.15
2023-05-14T12:15:12.399Z,7.03
2023-05-14T12:17:40.453Z,4.00
2023-05-14T12:20:12.219Z,3.55
2023-05-14T12:22:42.415Z,2.95
2023-05-14T12:25:14.215Z,4.72
2023-05-14T12:27:42.500Z,3.70
2023-05-14T12:30:21.298Z,3.20
2023-05-14T12:32:51.824Z,3.70
2023-05-14T12:35:20.246Z,6.85
2023-05-14T12:37:48.273Z,2.80
2023-05-14T12:40:16.557Z,6.55
2023-05-14T12:42:44.504Z,6.18
2023-05-14T12:45:14.079Z,2.53
2023-05-14T12:47:42.041Z,3.67
2023-05-14T12:50:10.551Z,3.25
2023-05-14T12:52:39.891Z,4.05
2023-05-14T12:55:09.174Z,2.85
2023-05-14T12:57:39.085Z,3.88
2023-05-14T13:00:12.970Z,4.63
2023-05-14T13:02:43.880Z,3.72
2023-05-14T13:05:12.905Z,4.85
2023-05-14T13:07:42.287Z,8.75
2023-05-14T13:10:11.424Z,4.30
2023-05-14T13:12:39.661Z,4.53
2023-05-14T13:15:08.666Z,3.22
2023-05-14T13:17:37.437Z,4.30
2023-05-14T13:20:08.285Z,5.53
2023-05-14T13:22:36.317Z,2.40
2023-05-14T13:25:04.889Z,3.85
2023-05-14T13:27:33.668Z,4.20
2023-05-14T13:30:01.653Z,3.50
2023-05-14T13:32:29.696Z,5.93
2023-05-14T13:34:57.775Z,3.85
2023-05-14T13:37:27.352Z,2.97
2023-05-14T13:39:55.316Z,4.25
2023-05-14T13:42:23.731Z,6.43
2023-05-14T13:44:51.760Z,3.42
2023-05-14T13:47:19.985Z,5.05
2023-05-14T13:49:48.032Z,3.92
2023-05-14T13:52:16.249Z,4.82
2023-05-14T13:54:45.768Z,8.63
2023-05-14T13:57:13.837Z,4.78
2023-05-14T13:59:42.041Z,5.85
2023-05-14T14:02:10.575Z,3.03
2023-05-14T14:04:38.565Z,5.82
2023-05-14T14:07:06.661Z,2.65
2023-05-14T14:09:36.698Z,3.63
2023-05-14T14:12:06.857Z,4.20
2023-05-14T14:14:34.926Z,3.35
2023-05-14T14:17:03.138Z,3.17
2023-05-14T14:19:31.220Z,3.58
2023-05-14T14:21:59.379Z,2.55
2023-05-14T14:24:27.425Z,5.15
2023-05-14T14:26:55.372Z,2.70
2023-05-14T14:29:24.720Z,7.63
2023-05-14T14:31:52.784Z,5.68
2023-05-14T14:34:20.837Z,5.68
2023-05-14T14:36:49.164Z,7.80
2023-05-14T14:39:17.161Z,2.92
2023-05-14T14:41:45.484Z,3.50
2023-05-14T14:44:13.466Z,2.67
2023-05-14T14:46:43.326Z,5.70
2023-05-14T14:49:11.320Z,5.57
2023-05-14T14:51:39.291Z,3.72
2023-05-14T14:54:07.393Z,2.55
2023-05-14T14:56:35.725Z,8.88
2023-05-14T14:59:03.821Z,1.85
2023-05-14T15:01:31.981Z,6.78
2023-05-14T15:04:01.553Z,2.40
2023-05-14T15:06:29.593Z,5.57
2023-05-14T15:08:57.630Z,4.60
2023-05-14T15:11:25.975Z,4.35
2023-05-14T15:13:54.027Z,7.47
2023-05-14T15:16:22.212Z,6.97
2023-05-14T15:18:50.341Z,3.50
2023-05-14T15:21:19.747Z,3.38
2023-05-14T15:23:47.765Z,4.30
2023-05-14T15:26:15.778Z,4.07
2023-05-14T15:28:43.871Z,4.43
2023-05-14T15:31:12.002Z,4.43
2023-05-14T15:33:41.647Z,3.13
2023-05-14T15:36:10.078Z,4.25
2023-05-14T15:38:39.442Z,4.20
2023-05-14T15:41:07.738Z,2.97
2023-05-14T15:43:37.176Z,3.22
2023-05-14T15:46:05.249Z,6.07
2023-05-14T15:48:33.713Z,7.15
2023-05-14T15:51:01.747Z,3.30
2023-05-14T15:53:30.094Z,4.68
2023-05-14T15:55:59.486Z,3.60
2023-05-14T15:58:27.930Z,3.83
2023-05-14T16:00:56.009Z,3.20
2023-05-14T16:03:24.217Z,4.30
2023-05-14T16:05:52.342Z,4.05
2023-05-14T16:08:20.379Z,4.57
2023-05-14T16:10:48.419Z,5.72
2023-05-14T16:13:17.819Z,8.07
2023-05-14T16:15:45.812Z,3.78
2023-05-14T16:18:13.829Z,4.05
2023-05-14T16:20:41.845Z,2.53
2023-05-14T16:23:09.780Z,4.78
2023-05-14T16:25:38.220Z,5.57
2023-05-14T16:28:07.866Z,4.45
2023-05-14T16:30:37.171Z,5.82
2023-05-14T16:33:06.561Z,4.35
2023-05-14T16:35:34.705Z,2.90
2023-05-14T16:38:02.758Z,2.42
2023-05-14T16:40:30.721Z,5.47
2023-05-14T16:42:58.798Z,4.78
2023-05-14T16:45:27.069Z,6.65
2023-05-14T16:47:56.572Z,4.68
2023-05-14T16:50:24.602Z,4.15
2023-05-14T16:52:52.695Z,3.92
2023-05-14T16:55:20.628Z,8.57
2023-05-14T16:57:48.642Z,3.10
2023-05-14T17:00:17.881Z,3.72
2023-05-14T17:02:49.028Z,2.25
2023-05-14T17:05:18.622Z,5.82
2023-05-14T17:07:46.626Z,8.93
2023-05-14T17:10:14.686Z,3.33
2023-05-14T17:12:42.680Z,5.93
2023-05-14T17:15:11.605Z,3.77
2023-05-14T17:17:39.678Z,4.80
2023-05-14T17:20:08.750Z,4.30
2023-05-14T17:22:38.246Z,5.60
2023-05-14T17:25:07.346Z,5.83
2023-05-14T17:27:36.151Z,6.10
2023-05-14T17:30:04.836Z,5.00
2023-05-14T17:32:32.924Z,4.80
2023-05-14T17:35:00.932Z,5.93
2023-05-14T17:37:28.938Z,3.70
2023-05-14T17:39:58.352Z,4.80
2023-05-14T17:42:26.416Z,9.30
2023-05-14T17:44:54.814Z,5.90
2023-05-14T17:47:22.798Z,4.53
2023-05-14T17:49:50.863Z,8.33
2023-05-14T17:52:19.114Z,6.97
2023-05-14T17:54:47.094Z,3.87
2023-05-14T17:57:16.467Z,4.67
2023-05-14T17:59:44.413Z,7.67
2023-05-14T18:02:12.423Z,4.47
2023-05-14T18:04:40.494Z,4.43
2023-05-14T18:07:08.590Z,6.60
2023-05-14T18:09:36.554Z,6.60
2023-05-14T18:12:04.676Z,4.37
2023-05-14T18:14:34.031Z,7.70
2023-05-14T18:17:02.216Z,7.17
2023-05-14T18:19:30.279Z,5.63
2023-05-14T18:21:58.319Z,4.90
2023-05-14T18:24:26.381Z,9.07
2023-05-14T18:26:55.195Z,5.70
2023-05-14T18:29:23.229Z,6.63
2023-05-14T18:31:52.766Z,5.60
2023-05-14T18:34:20.759Z,4.63
2023-05-14T18:36:48.765Z,6.33
2023-05-14T18:39:16.968Z,4.63
2023-05-14T18:41:48.388Z,6.33
2023-05-14T18:44:16.515Z,5.03
2023-05-14T18:46:46.765Z,6.23
2023-05-14T18:49:23.504Z,10.00
2023-05-14T18:51:51.523Z,9.83
2023-05-14T18:54:19.526Z,12.07
2023-05-14T18:56:47.842Z,6.27
2023-05-14T18:59:16.053Z,5.67
2023-05-14T19:01:44.044Z,8.10
2023-05-14T19:04:12.042Z,10.60
2023-05-14T19:06:41.449Z,7.47
2023-05-14T19:09:10.720Z,11.80
2023-05-14T19:11:38.701Z,8.17
2023-05-14T19:14:06.744Z,10.17
2023-05-14T19:16:34.882Z,7.43
2023-05-14T19:19:03.053Z,7.40
2023-05-14T19:21:31.062Z,7.97
2023-05-14T19:24:00.390Z,14.00
2023-05-14T19:26:28.785Z,7.27
2023-05-14T19:28:58.979Z,9.20
2023-05-14T19:31:27.271Z,7.37
2023-05-14T19:33:55.565Z,7.67
2023-05-14T19:36:23.703Z,9.43
2023-05-14T19:38:51.769Z,11.43
2023-05-14T19:41:21.612Z,12.70
2023-05-14T19:43:49.776Z,11.57
2023-05-14T19:46:17.914Z,11.77
2023-05-14T19:48:45.944Z,11.17
2023-05-14T19:51:13.941Z,14.33
2023-05-14T19:53:41.927Z,9.60
2023-05-14T19:56:10.049Z,7.97
2023-05-14T19:58:39.441Z,8.60
2023-05-14T20:01:07.483Z,7.33
2023-05-14T20:03:35.710Z,8.27
2023-05-14T20:06:03.694Z,12.07
2023-05-14T20:08:31.688Z,9.13
2023-05-14T20:10:59.657Z,9.43
2023-05-14T20:13:27.668Z,7.47
2023-05-14T20:15:57.191Z,9.07
2023-05-14T20:18:25.236Z,8.57
2023-05-14T20:20:53.244Z,7.60
2023-05-14T20:23:21.280Z,7.93
2023-05-14T20:25:49.395Z,7.13
2023-05-14T20:28:17.369Z,9.00
2023-05-14T20:30:45.595Z,6.77
2023-05-14T20:33:15.175Z,9.17
2023-05-14T20:35:44.064Z,9.33
2023-05-14T20:38:12.619Z,8.67
2023-05-14T20:40:40.913Z,9.23
2023-05-14T20:43:08.951Z,9.20
2023-05-14T20:45:37.180Z,9.47
2023-05-14T20:48:07.997Z,7.60
2023-05-14T20:50:37.497Z,9.87
2023-05-14T20:53:05.809Z,8.90
2023-05-14T20:55:33.967Z,10.87
2023-05-14T20:58:02.030Z,10.07
2023-05-14T21:00:30.081Z,8.53
2023-05-14T21:02:59.550Z,9.27
2023-05-14T21:05:28.031Z,13.43
2023-05-14T21:07:57.581Z,9.27
2023-05-14T21:10:25.901Z,9.10
2023-05-14T21:12:54.234Z,9.80
2023-05-14T21:15:22.823Z,13.60
2023-05-14T21:17:51.329Z,11.90
2023-05-14T21:20:19.603Z,13.67
2023-05-14T21:22:47.630Z,10.57
2023-05-14T21:25:17.313Z,9.73
2023-05-14T21:27:45.343Z,11.27
2023-05-14T21:30:14.522Z,12.87
2023-05-14T21:32:42.824Z,11.60
2023-05-14T21:35:11.197Z,10.77
2023-05-14T21:37:39.835Z,10.63
2023-05-14T21:40:09.270Z,7.83
2023-05-14T21:42:39.462Z,7.90
2023-05-14T21:45:08.590Z,8.43
2023-05-14T21:47:37.040Z,11.37
2023-05-14T21:50:06.004Z,10.03
2023-05-14T21:52:34.094Z,13.23
2023-05-14T21:55:02.129Z,10.50
2023-05-14T21:57:34.110Z,9.47
2023-05-14T22:00:04.791Z,11.23
2023-05-14T22:02:33.459Z,12.07
2023-05-14T22:05:01.500Z,9.10
2023-05-14T22:07:29.642Z,12.70
2023-05-14T22:09:57.766Z,10.50
2023-05-14T22:12:26.135Z,17.20
2023-05-14T22:14:54.156Z,12.10
2023-05-14T22:17:23.587Z,11.73
2023-05-14T22:19:51.784Z,13.43
2023-05-14T22:22:19.788Z,11.23
2023-05-14T22:24:47.797Z,11.93
2023-05-14T22:27:15.948Z,11.97
2023-05-14T22:29:44.109Z,11.13
2023-05-14T22:32:12.113Z,14.57
2023-05-14T22:34:41.484Z,12.70
2023-05-14T22:37:09.563Z,12.83
2023-05-14T22:39:37.492Z,10.83
2023-05-14T22:42:06.166Z,14.83
2023-05-14T22:44:35.362Z,11.03
2023-05-14T22:47:04.934Z,13.27
2023-05-14T22:49:33.156Z,9.33
2023-05-14T22:52:02.502Z,13.70
2023-05-14T22:54:30.519Z,11.13
2023-05-14T22:56:58.548Z,13.30
2023-05-14T22:59:26.492Z,10.40
2023-05-14T23:01:54.525Z,16.37
2023-05-14T23:04:22.575Z,12.17
2023-05-14T23:06:50.636Z,16.37
2023-05-14T23:09:19.965Z,14.63
2023-05-14T23:11:48.000Z,13.77
2023-05-14T23:14:17.744Z,10.57
2023-05-14T23:16:45.954Z,13.40
2023-05-14T23:19:14.081Z,11.50
2023-05-14T23:21:42.109Z,11.40
2023-05-14T23:24:10.201Z,11.40
2023-05-14T23:26:39.552Z,9.80
2023-05-14T23:29:07.555Z,12.47
2023-05-14T23:31:36.963Z,11.30
2023-05-14T23:34:05.085Z,12.77
2023-05-14T23:36:33.544Z,16.80
2023-05-14T23:39:01.558Z,15.17
2023-05-14T23:41:29.496Z,13.20
2023-05-14T23:43:58.864Z,11.93
2023-05-14T23:46:27.009Z,10.47
2023-05-14T23:48:56.999Z,9.50
2023-05-14T23:51:25.356Z,11.33
2023-05-14T23:53:58.121Z,10.83
2023-05-14T23:56:27.388Z,11.30
2023-05-14T23:58:55.529Z,12.03
